Time;durP1;ratioP1;P1;durP2;ratioP2;P2;SDS_P1;SDS_P2;PMS_P1;PMS_P2;Temp;Humidity;BMP_temperature;BMP_pressure;BME280_temperature;BME280_humidity;BME280_pressure;Samples;Min_cycle;Max_cycle;Signal;HPM_P1;HPM_P2
2021/10/16 00:02:04;;;;;;;;;23.25;23.25;;;;;14.78;66.85;101858.19;4953122;28;45621;-62
2021/10/16 00:04:29;;;;;;;;;31.00;25.75;;;;;14.74;67.22;101856.66;4951364;28;45500;-65
2021/10/16 00:06:54;;;;;;;;;35.00;29.50;;;;;14.72;66.97;101869.16;4951313;28;45599;-62
2021/10/16 00:09:20;;;;;;;;;42.75;31.50;;;;;14.72;67.06;101858.53;4951632;28;45666;-62
2021/10/16 00:11:46;;;;;;;;;34.75;31.50;;;;;14.68;66.91;101864.09;4952466;28;45670;-62
2021/10/16 00:14:11;;;;;;;;;45.25;35.00;;;;;14.66;67.37;101866.84;4951764;28;46544;-63
2021/10/16 00:16:37;;;;;;;;;44.25;36.00;;;;;14.65;66.94;101865.16;4947899;28;45569;-62
2021/10/16 00:19:04;;;;;;;;;39.75;32.00;;;;;14.67;67.30;101863.25;4953755;28;45212;-62
2021/10/16 00:21:30;;;;;;;;;49.50;39.25;;;;;14.66;66.89;101866.00;4955384;28;45523;-63
2021/10/16 00:23:55;;;;;;;;;55.00;43.25;;;;;14.58;67.41;101861.13;4949548;28;45747;-63
2021/10/16 00:26:21;;;;;;;;;54.75;45.25;;;;;14.55;67.20;101865.78;4945372;28;45275;-63
2021/10/16 00:28:46;;;;;;;;;55.00;43.75;;;;;14.49;67.32;101864.31;4945263;28;45284;-63
2021/10/16 00:31:12;;;;;;;;;52.50;39.00;;;;;14.43;67.33;101860.19;4945452;28;45406;-63
2021/10/16 00:33:38;;;;;;;;;47.50;39.00;;;;;14.40;67.21;101872.78;4945099;28;45424;-63
2021/10/16 00:36:04;;;;;;;;;46.75;38.75;;;;;14.38;67.33;101859.63;4944754;28;45361;-63
2021/10/16 00:38:29;;;;;;;;;51.75;43.25;;;;;14.38;67.29;101862.28;4944889;28;45306;-62
2021/10/16 00:40:54;;;;;;;;;49.50;39.25;;;;;14.38;67.57;101853.47;4945089;28;45415;-62
2021/10/16 00:43:20;;;;;;;;;61.25;48.00;;;;;14.38;67.17;101858.78;4944946;28;45345;-63
2021/10/16 00:45:45;;;;;;;;;59.00;45.00;;;;;14.36;67.40;101858.84;4944939;28;45348;-63
2021/10/16 00:48:11;;;;;;;;;45.75;37.25;;;;;14.36;67.38;101856.19;4945162;28;45525;-62
2021/10/16 00:50:36;;;;;;;;;26.25;21.75;;;;;14.36;67.23;101857.97;4945175;28;45377;-62
2021/10/16 00:53:02;;;;;;;;;34.25;26.25;;;;;14.36;67.27;101858.84;4944229;28;45434;-62
2021/10/16 00:55:28;;;;;;;;;20.00;17.00;;;;;14.33;67.27;101856.38;4944973;28;45330;-62
2021/10/16 00:57:54;;;;;;;;;14.50;11.75;;;;;14.29;66.90;101857.47;4944997;28;45235;-62
2021/10/16 01:00:20;;;;;;;;;14.00;8.75;;;;;14.28;67.34;101852.25;4945308;28;45235;-62
2021/10/16 01:02:46;;;;;;;;;13.00;9.25;;;;;14.27;67.16;101854.06;4944596;28;46317;-63
2021/10/16 01:05:12;;;;;;;;;16.75;14.25;;;;;14.23;67.05;101849.88;4943553;28;45263;-62
2021/10/16 01:07:38;;;;;;;;;13.00;10.50;;;;;14.21;67.26;101857.06;4943911;28;45228;-62
2021/10/16 01:10:09;;;;;;;;;12.00;11.00;;;;;14.18;67.05;101846.63;4944083;28;45397;-63
2021/10/16 01:12:37;;;;;;;;;12.00;11.75;;;;;14.17;67.27;101850.22;4944168;28;45311;-63
2021/10/16 01:15:07;;;;;;;;;17.25;14.75;;;;;14.14;67.19;101853.91;4944728;28;45354;-63
2021/10/16 01:17:34;;;;;;;;;13.25;9.50;;;;;14.11;67.19;101848.78;4944572;28;45314;-63
2021/10/16 01:20:11;;;;;;;;;13.25;11.50;;;;;14.09;67.37;101850.66;4944868;28;45445;-63
2021/10/16 01:22:40;;;;;;;;;11.50;9.25;;;;;14.04;67.39;101843.91;4944165;28;46180;-63
2021/10/16 01:25:13;;;;;;;;;12.50;10.00;;;;;13.98;67.64;101853.03;4944345;28;45370;-64
2021/10/16 01:27:40;;;;;;;;;13.75;12.00;;;;;13.95;67.41;101854.06;4944666;28;45346;-63
2021/10/16 01:30:08;;;;;;;;;16.25;12.75;;;;;13.94;67.61;101847.06;4944476;28;45316;-64
2021/10/16 01:32:34;;;;;;;;;14.00;10.25;;;;;13.94;67.54;101854.16;4944523;28;46398;-63
2021/10/16 01:35:01;;;;;;;;;12.75;10.25;;;;;13.94;67.43;101849.72;4942928;28;45544;-63
2021/10/16 01:37:27;;;;;;;;;14.75;11.00;;;;;13.94;67.64;101852.38;4944185;28;45232;-63
2021/10/16 01:39:52;;;;;;;;;13.25;13.00;;;;;13.92;67.55;101843.66;4944220;28;45604;-63
2021/10/16 01:42:18;;;;;;;;;15.50;10.00;;;;;13.90;67.48;101848.19;4944257;28;45790;-63
2021/10/16 01:44:43;;;;;;;;;13.50;10.00;;;;;13.89;67.37;101841.16;4944292;28;45436;-63
2021/10/16 01:47:09;;;;;;;;;12.75;11.25;;;;;13.90;67.53;101848.19;4944295;28;45415;-64
2021/10/16 01:49:35;;;;;;;;;11.25;10.50;;;;;13.89;67.41;101835.88;4944372;28;45365;-64
2021/10/16 01:52:00;;;;;;;;;14.25;11.00;;;;;13.89;67.42;101837.66;4943924;28;45313;-63
2021/10/16 01:54:26;;;;;;;;;16.50;11.00;;;;;13.87;67.59;101839.56;4943793;28;45377;-64
2021/10/16 01:56:51;;;;;;;;;11.75;10.50;;;;;13.85;67.52;101836.13;4943964;28;45408;-64
2021/10/16 01:59:22;;;;;;;;;11.50;9.75;;;;;13.82;67.39;101836.28;4944206;28;45313;-63
2021/10/16 02:01:48;;;;;;;;;13.75;11.25;;;;;13.81;67.59;101830.13;4943847;28;45415;-63
2021/10/16 02:04:14;;;;;;;;;12.50;10.75;;;;;13.80;67.53;101833.72;4944064;28;45354;-64
2021/10/16 02:06:40;;;;;;;;;10.25;10.00;;;;;13.79;67.57;101833.81;4943628;28;45454;-64
2021/10/16 02:09:06;;;;;;;;;11.25;10.50;;;;;13.79;67.48;101832.03;4943819;28;45463;-64
2021/10/16 02:11:32;;;;;;;;;11.25;9.25;;;;;13.77;67.38;101825.97;4943183;28;45401;-63
2021/10/16 02:13:58;;;;;;;;;11.25;10.75;;;;;13.76;67.32;101826.91;4943630;28;45326;-64
2021/10/16 02:16:24;;;;;;;;;10.25;8.50;;;;;13.74;67.12;101822.63;4942487;28;45374;-64
2021/10/16 02:18:50;;;;;;;;;10.25;9.50;;;;;13.73;67.25;101819.13;4943502;28;45237;-64
2021/10/16 02:21:16;;;;;;;;;10.00;10.00;;;;;13.72;67.33;101819.22;4943311;28;45243;-64
2021/10/16 02:23:42;;;;;;;;;18.25;9.25;;;;;13.70;67.45;101816.66;4943689;28;45271;-64
2021/10/16 02:26:08;;;;;;;;;12.50;9.50;;;;;13.71;67.36;101820.16;4943832;28;45724;-64
2021/10/16 02:28:33;;;;;;;;;8.50;8.50;;;;;13.69;67.47;101820.25;4943618;28;45305;-64
2021/10/16 02:30:58;;;;;;;;;10.00;8.25;;;;;13.68;67.33;101816.75;4943660;28;45436;-64
2021/10/16 02:33:24;;;;;;;;;11.00;10.50;;;;;13.65;67.24;101822.19;4943469;28;45342;-64
2021/10/16 02:35:49;;;;;;;;;12.25;10.00;;;;;13.64;67.22;101815.19;4943396;28;45398;-64
2021/10/16 02:38:15;;;;;;;;;15.00;10.00;;;;;13.66;67.47;101823.03;4943246;28;45302;-64
2021/10/16 02:40:40;;;;;;;;;9.75;8.25;;;;;13.63;67.39;101816.13;4943211;28;46107;-64
2021/10/16 02:43:06;;;;;;;;;9.50;9.50;;;;;13.61;67.31;101818.00;4943252;28;45221;-65
2021/10/16 02:45:31;;;;;;;;;11.50;10.50;;;;;13.61;67.38;101810.06;4943409;28;45275;-65
2021/10/16 02:47:57;;;;;;;;;13.00;12.00;;;;;13.61;67.49;101822.47;4943258;28;45569;-64
2021/10/16 02:50:23;;;;;;;;;9.00;8.75;;;;;13.59;67.48;101808.47;4943349;28;45367;-64
2021/10/16 02:52:48;;;;;;;;;12.75;12.00;;;;;13.57;67.30;101805.00;4943078;28;45401;-65
2021/10/16 02:55:16;;;;;;;;;11.00;10.25;;;;;13.55;67.38;101810.41;4943192;28;45198;-64
2021/10/16 02:57:42;;;;;;;;;8.25;8.25;;;;;13.55;67.30;101807.75;4943381;28;45218;-65
2021/10/16 03:00:08;;;;;;;;;14.25;11.00;;;;;13.52;67.63;101813.22;4943053;28;45438;-64
2021/10/16 03:02:34;;;;;;;;;13.75;9.50;;;;;13.51;67.28;101816.81;4942901;28;45429;-64
2021/10/16 03:05:00;;;;;;;;;9.00;9.00;;;;;13.45;67.80;101811.00;4942994;28;45413;-63
2021/10/16 03:07:25;;;;;;;;;11.75;10.75;;;;;13.43;67.53;101815.50;4942919;28;45314;-64
2021/10/16 03:09:51;;;;;;;;;16.25;12.00;;;;;13.38;67.72;101810.47;4942668;28;45421;-64
2021/10/16 03:12:16;;;;;;;;;13.25;11.75;;;;;13.36;67.85;101810.56;4942228;28;45469;-64
2021/10/16 03:14:42;;;;;;;;;12.75;10.75;;;;;13.35;67.81;101800.91;4943098;28;45363;-64
2021/10/16 03:17:07;;;;;;;;;13.75;11.00;;;;;13.37;67.89;101804.31;4943032;28;45513;-65
2021/10/16 03:19:32;;;;;;;;;13.00;10.50;;;;;13.37;67.46;101809.63;4942800;28;45631;-64
2021/10/16 03:21:58;;;;;;;;;12.50;11.00;;;;;13.33;67.70;101800.13;4942578;28;45465;-64
2021/10/16 03:24:24;;;;;;;;;12.50;10.00;;;;;13.33;67.92;101809.84;4942814;28;45416;-65
2021/10/16 03:26:49;;;;;;;;;11.50;11.00;;;;;13.33;67.80;101804.56;4942783;28;45337;-64
2021/10/16 03:29:15;;;;;;;;;10.75;9.00;;;;;13.32;67.75;101800.19;4942613;28;45412;-64
2021/10/16 03:31:40;;;;;;;;;10.25;9.50;;;;;13.27;67.72;101808.41;4942054;28;45283;-64
2021/10/16 03:34:06;;;;;;;;;9.75;9.75;;;;;13.23;67.97;101800.69;4942896;28;45313;-64
2021/10/16 03:36:32;;;;;;;;;13.75;11.00;;;;;13.19;67.87;101809.69;4942628;28;45382;-63
2021/10/16 03:38:58;;;;;;;;;16.00;12.50;;;;;13.13;68.29;101795.00;4942225;28;45366;-63
2021/10/16 03:41:23;;;;;;;;;12.75;7.75;;;;;13.09;68.44;101809.31;4942267;28;45335;-63
2021/10/16 03:43:49;;;;;;;;;12.00;9.00;;;;;13.08;68.07;101799.69;4942772;28;45371;-64
2021/10/16 03:46:15;;;;;;;;;11.00;11.00;;;;;13.05;68.25;101798.06;4942369;28;45475;-63
2021/10/16 03:48:41;;;;;;;;;10.50;10.00;;;;;13.00;68.35;101800.09;4942370;28;45357;-64
2021/10/16 03:51:07;;;;;;;;;19.75;14.00;;;;;12.96;68.40;101805.63;4942108;28;45369;-64
2021/10/16 03:53:32;;;;;;;;;14.75;10.00;;;;;12.95;68.58;101811.84;4942409;28;45316;-64
2021/10/16 03:55:58;;;;;;;;;13.00;13.00;;;;;12.96;68.67;101817.06;4942609;28;45285;-63
2021/10/16 03:58:23;;;;;;;;;13.50;12.00;;;;;12.97;68.46;101820.56;4942057;28;45893;-64
2021/10/16 04:00:49;;;;;;;;;10.00;8.25;;;;;12.98;68.62;101819.63;4942184;28;45231;-63
2021/10/16 04:03:15;;;;;;;;;11.25;11.25;;;;;12.99;68.64;101816.03;4942462;28;45270;-63
2021/10/16 04:05:41;;;;;;;;;15.50;13.00;;;;;12.96;68.60;101814.41;4942060;28;45389;-63
2021/10/16 04:08:08;;;;;;;;;12.00;10.00;;;;;12.96;68.81;101819.72;4942040;28;45235;-63
2021/10/16 04:10:34;;;;;;;;;12.25;10.75;;;;;12.97;68.36;101812.63;4942088;28;45367;-63
2021/10/16 04:13:01;;;;;;;;;12.00;9.75;;;;;12.97;68.52;101823.22;4942346;28;45413;-63
2021/10/16 04:15:26;;;;;;;;;10.25;10.25;;;;;12.98;68.38;101816.97;4942265;28;45301;-64
2021/10/16 04:17:52;;;;;;;;;9.75;6.00;;;;;12.98;68.31;101817.84;4941143;28;45964;-64
2021/10/16 04:20:17;;;;;;;;;13.00;12.00;;;;;12.97;68.48;101815.28;4942073;28;45315;-64
2021/10/16 04:22:43;;;;;;;;;10.00;9.75;;;;;12.94;68.41;101816.28;4942048;28;45293;-64
2021/10/16 04:25:08;;;;;;;;;12.00;11.25;;;;;12.96;68.29;101818.84;4940788;28;45259;-64
2021/10/16 04:27:34;;;;;;;;;18.25;12.25;;;;;12.95;67.97;101820.63;4942078;28;45310;-64
2021/10/16 04:29:59;;;;;;;;;11.00;10.25;;;;;12.96;67.73;101821.50;4941875;28;45270;-64
2021/10/16 04:32:25;;;;;;;;;15.00;11.00;;;;;12.97;67.70;101826.72;4942240;28;46002;-63
2021/10/16 04:34:50;;;;;;;;;15.00;11.00;;;;;12.98;67.46;101822.28;4942259;28;45433;-64
2021/10/16 04:37:16;;;;;;;;;17.00;12.00;;;;;12.97;67.29;101825.84;4940434;28;46149;-64
2021/10/16 04:39:43;;;;;;;;;11.75;10.50;;;;;12.97;67.22;101821.41;4941593;28;45262;-65
2021/10/16 04:42:11;;;;;;;;;11.00;9.75;;;;;12.98;67.32;101823.13;4942395;28;45416;-63
2021/10/16 04:44:38;;;;;;;;;11.75;10.25;;;;;13.00;66.86;101821.25;4945217;28;45374;-64
2021/10/16 04:47:03;;;;;;;;;7.00;5.00;;;;;12.95;67.50;101815.34;4944946;28;45362;-63
2021/10/16 04:49:29;;;;;;;;;18.00;13.25;;;;;12.92;67.38;101828.72;4945069;28;45283;-63
2021/10/16 04:51:55;;;;;;;;;13.25;13.25;;;;;12.88;67.32;101821.03;4945142;28;45278;-63
2021/10/16 04:54:20;;;;;;;;;16.75;13.00;;;;;12.87;67.56;101830.75;4945117;28;45219;-63
2021/10/16 04:56:46;;;;;;;;;10.50;8.25;;;;;12.88;67.40;101828.97;4944878;28;45381;-63
2021/10/16 04:59:11;;;;;;;;;12.00;11.75;;;;;12.89;67.40;101830.69;4943658;28;45294;-63
2021/10/16 05:01:37;;;;;;;;;14.75;11.25;;;;;12.91;67.33;101831.44;4944970;28;45378;-64
2021/10/16 05:04:02;;;;;;;;;20.75;13.25;;;;;12.90;67.44;101835.88;4945094;28;45466;-63
2021/10/16 05:06:34;;;;;;;;;14.50;11.50;;;;;12.90;67.52;101838.53;4944199;28;45372;-63
2021/10/16 05:09:00;;;;;;;;;13.50;11.00;;;;;12.90;67.57;101842.97;4944179;28;45213;-63
2021/10/16 05:11:25;;;;;;;;;15.25;11.50;;;;;12.86;67.36;101843.09;4944861;28;45505;-64
2021/10/16 05:13:51;;;;;;;;;9.00;9.00;;;;;12.84;67.92;101841.50;4944913;28;45219;-63
2021/10/16 05:16:16;;;;;;;;;17.00;15.75;;;;;12.81;67.50;101844.31;4944414;28;45633;-63
2021/10/16 05:18:42;;;;;;;;;14.50;13.50;;;;;12.79;67.62;101841.69;4943951;28;45449;-64
2021/10/16 05:21:09;;;;;;;;;13.75;11.50;;;;;12.80;67.69;101842.59;4944358;28;45310;-63
2021/10/16 05:23:35;;;;;;;;;16.75;12.50;;;;;12.83;67.76;101842.41;4944597;28;45385;-63
2021/10/16 05:26:01;;;;;;;;;13.25;11.00;;;;;12.83;67.65;101834.50;4944777;28;46225;-63
2021/10/16 05:28:26;;;;;;;;;17.50;11.00;;;;;12.86;67.76;101842.25;4944257;28;45299;-63
2021/10/16 05:30:52;;;;;;;;;15.75;12.00;;;;;12.88;67.87;101836.91;4944556;28;45502;-64
2021/10/16 05:33:17;;;;;;;;;16.50;13.75;;;;;12.89;67.79;101843.91;4944521;28;45507;-63
2021/10/16 05:35:45;;;;;;;;;13.25;12.50;;;;;12.90;67.94;101843.81;4944220;28;46167;-64
2021/10/16 05:38:12;;;;;;;;;13.75;12.50;;;;;12.91;67.75;101836.75;4944011;28;45240;-64
2021/10/16 05:40:38;;;;;;;;;14.00;12.00;;;;;12.91;67.81;101836.75;4944305;28;45267;-64
2021/10/16 05:43:04;;;;;;;;;17.25;13.50;;;;;12.90;67.81;101830.59;4944169;28;45445;-63
2021/10/16 05:45:29;;;;;;;;;12.00;12.00;;;;;12.89;67.84;101833.34;4944239;28;45953;-63
2021/10/16 05:47:55;;;;;;;;;16.75;14.75;;;;;12.86;68.09;101827.25;4944052;28;45346;-64
2021/10/16 05:50:20;;;;;;;;;20.75;14.75;;;;;12.86;67.87;101826.38;4944303;28;45318;-64
2021/10/16 05:52:46;;;;;;;;;17.25;12.25;;;;;12.88;67.97;101827.19;4943940;28;45434;-64
2021/10/16 05:55:11;;;;;;;;;17.75;16.50;;;;;12.90;67.88;101830.59;4943223;28;45969;-64
2021/10/16 05:57:37;;;;;;;;;20.00;14.50;;;;;12.86;67.90;101832.53;4943923;28;45338;-63
2021/10/16 06:00:03;;;;;;;;;18.00;12.00;;;;;12.87;68.12;101833.38;4944084;28;45551;-63
2021/10/16 06:02:29;;;;;;;;;15.50;13.75;;;;;12.86;68.41;101840.47;4943889;28;45472;-64
2021/10/16 06:04:54;;;;;;;;;15.50;15.00;;;;;12.83;68.36;101838.00;4943730;28;45984;-64
2021/10/16 06:07:20;;;;;;;;;17.25;13.00;;;;;12.83;68.17;101838.00;4943732;28;45216;-63
2021/10/16 06:09:45;;;;;;;;;20.00;16.75;;;;;12.89;68.15;101852.69;4943915;28;45280;-63
2021/10/16 06:12:11;;;;;;;;;18.25;17.00;;;;;12.89;68.00;101852.69;4943910;28;45318;-64
2021/10/16 06:14:36;;;;;;;;;15.25;13.25;;;;;12.90;68.16;101859.69;4943707;28;46159;-64
2021/10/16 06:17:03;;;;;;;;;17.25;13.75;;;;;12.89;68.02;101860.63;4943685;28;45331;-64
2021/10/16 06:19:29;;;;;;;;;16.50;14.75;;;;;12.90;68.17;101856.19;4943896;28;45340;-64
2021/10/16 06:21:55;;;;;;;;;18.75;15.50;;;;;12.92;67.95;101847.22;4943592;28;45310;-63
2021/10/16 06:24:20;;;;;;;;;15.50;14.50;;;;;12.96;68.08;101850.59;4943471;28;45345;-64
2021/10/16 06:26:46;;;;;;;;;16.25;13.00;;;;;12.99;68.09;101853.06;4942746;28;45333;-63
2021/10/16 06:29:11;;;;;;;;;13.00;11.25;;;;;12.99;67.80;101846.00;4943766;28;45291;-63
2021/10/16 06:31:36;;;;;;;;;16.50;15.25;;;;;13.02;67.89;101842.31;4943651;28;45511;-64
2021/10/16 06:34:02;;;;;;;;;16.00;14.75;;;;;13.04;67.68;101846.63;4942172;28;46985;-64
2021/10/16 06:36:28;;;;;;;;;20.00;17.25;;;;;13.06;67.71;101854.47;4943323;28;45608;-64
2021/10/16 06:38:53;;;;;;;;;23.25;20.50;;;;;13.06;67.63;101850.03;4943368;28;45285;-63
2021/10/16 06:41:19;;;;;;;;;24.50;20.50;;;;;13.04;67.63;101856.34;4943485;28;45169;-64
2021/10/16 06:43:44;;;;;;;;;22.75;18.25;;;;;13.05;67.86;101856.25;4946775;28;46023;-64
2021/10/16 06:46:10;;;;;;;;;21.25;18.50;;;;;13.07;67.58;101851.75;4950569;28;45449;-64
2021/10/16 06:48:35;;;;;;;;;21.50;18.00;;;;;13.08;67.44;101848.16;4952389;28;45244;-63
2021/10/16 06:51:01;;;;;;;;;21.50;18.00;;;;;13.09;67.49;101856.94;4952964;28;45481;-63
2021/10/16 06:53:26;;;;;;;;;17.75;14.75;;;;;13.10;67.47;101848.91;4952346;28;45597;-63
2021/10/16 06:55:52;;;;;;;;;18.25;16.25;;;;;13.12;67.46;101854.16;4951541;28;45279;-63
2021/10/16 06:58:17;;;;;;;;;16.25;13.75;;;;;13.12;67.51;101859.44;4951117;28;45224;-63
2021/10/16 07:00:43;;;;;;;;;17.50;12.50;;;;;13.12;67.61;101862.09;4950755;28;45494;-64
2021/10/16 07:03:13;;;;;;;;;21.50;16.00;;;;;13.11;67.46;101868.28;4951457;28;47824;-64
2021/10/16 07:05:40;;;;;;;;;15.75;14.50;;;;;13.11;67.28;101865.66;4948316;28;45458;-64
2021/10/16 07:08:06;;;;;;;;;16.75;13.75;;;;;13.11;67.44;101866.53;4942846;28;45316;-63
2021/10/16 07:10:31;;;;;;;;;17.00;15.00;;;;;13.11;67.47;101860.34;4942821;28;45545;-66
2021/10/16 07:13:01;;;;;;;;;23.75;18.75;;;;;13.12;67.21;101884.13;4942262;28;46012;-63
2021/10/16 07:15:26;;;;;;;;;19.00;14.50;;;;;13.11;67.36;101879.75;4942613;28;45378;-63
2021/10/16 07:17:52;;;;;;;;;22.50;17.00;;;;;13.10;67.23;101878.03;4942676;28;45326;-64
2021/10/16 07:20:17;;;;;;;;;20.25;19.00;;;;;13.10;67.38;101880.66;4937161;28;45477;-70
2021/10/16 07:22:43;;;;;;;;;22.25;18.00;;;;;13.16;67.49;101882.16;4940186;28;45433;-65
2021/10/16 07:25:09;;;;;;;;;21.00;17.75;;;;;13.21;67.20;101889.91;4942476;28;45502;-60
2021/10/16 07:27:35;;;;;;;;;20.25;16.75;;;;;13.23;67.18;101883.56;4942622;28;45313;-62
2021/10/16 07:30:00;;;;;;;;;19.25;18.25;;;;;13.26;67.48;101890.50;4942471;28;45414;-62
2021/10/16 07:32:26;;;;;;;;;19.50;17.50;;;;;13.28;66.97;101886.00;4942186;28;45223;-62
2021/10/16 07:34:51;;;;;;;;;17.25;17.00;;;;;13.31;66.88;101885.81;4942389;28;45287;-63
2021/10/16 07:37:17;;;;;;;;;19.50;17.75;;;;;13.33;66.96;101889.22;4942057;28;45235;-63
2021/10/16 07:39:42;;;;;;;;;20.25;14.00;;;;;13.37;67.01;101896.09;4942351;28;45527;-63
2021/10/16 07:42:08;;;;;;;;;25.25;18.75;;;;;13.43;66.94;101886.94;4942186;28;45469;-62
2021/10/16 07:44:33;;;;;;;;;19.25;13.00;;;;;13.46;66.63;101878.88;4942434;28;45536;-64
2021/10/16 07:46:59;;;;;;;;;20.25;15.25;;;;;13.47;66.64;101883.22;4942339;28;45447;-63
2021/10/16 07:49:24;;;;;;;;;13.75;12.50;;;;;13.48;66.15;101890.22;4951544;28;45525;-65
2021/10/16 07:51:50;;;;;;;;;15.00;12.50;;;;;13.45;66.29;101890.41;4954787;28;45912;-68
2021/10/16 07:54:17;;;;;;;;;17.50;15.50;;;;;13.44;66.14;101886.03;4945953;28;45477;-66
2021/10/16 07:56:43;;;;;;;;;19.00;18.00;;;;;13.43;66.29;101877.25;4946999;28;45267;-67
2021/10/16 07:59:08;;;;;;;;;17.00;13.00;;;;;13.44;66.13;101884.25;4944192;28;45607;-67
2021/10/16 08:01:34;;;;;;;;;17.00;13.00;;;;;13.48;65.96;101884.94;4944284;28;45253;-62
2021/10/16 08:04:00;;;;;;;;;17.75;12.75;;;;;13.51;66.11;101890.06;4943803;28;45597;-61
2021/10/16 08:06:25;;;;;;;;;17.00;13.25;;;;;13.56;65.86;101890.66;4954209;28;45402;-67
2021/10/16 08:08:51;;;;;;;;;13.00;12.00;;;;;13.63;65.85;101892.06;4951816;28;45228;-62
2021/10/16 08:11:16;;;;;;;;;17.75;12.25;;;;;13.70;66.14;101888.16;4945425;28;46269;-66
2021/10/16 08:13:42;;;;;;;;;19.50;14.00;;;;;13.78;65.94;101890.38;4951633;28;45315;-61
2021/10/16 08:16:07;;;;;;;;;16.00;15.00;;;;;13.86;65.52;101893.47;4952373;28;45457;-60
2021/10/16 08:18:33;;;;;;;;;19.50;18.00;;;;;13.88;65.57;101887.13;4953123;28;45251;-60
2021/10/16 08:20:58;;;;;;;;;16.25;14.00;;;;;13.92;65.33;101894.00;4947797;28;45307;-60
2021/10/16 08:23:24;;;;;;;;;18.50;14.50;;;;;13.97;64.93;101880.47;4951149;28;45759;-62
2021/10/16 08:25:50;;;;;;;;;21.50;17.75;;;;;14.02;65.03;101886.38;4954561;28;45419;-61
2021/10/16 08:28:16;;;;;;;;;14.00;13.00;;;;;14.09;65.31;101881.59;4953364;28;45449;-60
2021/10/16 08:30:49;;;;;;;;;19.75;15.25;;;;;14.16;64.96;101889.13;4942424;28;45554;-64
2021/10/16 08:33:15;;;;;;;;;20.00;14.00;;;;;14.21;64.64;101886.19;4941956;28;45551;-65
2021/10/16 08:35:41;;;;;;;;;15.75;12.75;;;;;14.23;64.13;101895.81;4946900;28;45489;-61
2021/10/16 08:38:06;;;;;;;;;19.25;14.50;;;;;14.28;64.02;101899.97;4943397;28;45450;-62
2021/10/16 08:40:32;;;;;;;;;13.75;13.50;;;;;14.32;63.95;101899.72;4943274;28;45493;-61
2021/10/16 08:43:00;;;;;;;;;18.25;14.25;;;;;14.37;63.73;101910.03;4942963;28;45372;-60
2021/10/16 08:45:25;;;;;;;;;16.25;13.75;;;;;14.40;63.48;101916.06;4943690;28;45425;-59
2021/10/16 08:47:52;;;;;;;;;19.25;16.00;;;;;14.43;63.26;101917.66;4943167;28;45346;-59
2021/10/16 08:50:18;;;;;;;;;16.00;14.50;;;;;14.45;63.18;101914.00;4943025;28;46229;-59
2021/10/16 08:52:43;;;;;;;;;14.25;12.00;;;;;14.50;62.45;101917.25;4943376;28;45270;-61
2021/10/16 08:55:09;;;;;;;;;15.25;14.25;;;;;14.55;61.98;101914.34;4943208;28;45437;-59
2021/10/16 08:57:38;;;;;;;;;24.75;19.75;;;;;14.59;62.83;101917.69;4943643;28;45393;-60
2021/10/16 09:00:54;;;;;;;;;18.00;15.25;;;;;14.59;62.77;101921.19;4942785;28;45444;-60
2021/10/16 09:03:40;;;;;;;;;16.25;14.00;;;;;14.59;63.31;101917.69;4942499;28;45168;-54
2021/10/16 09:06:24;;;;;;;;;17.25;15.00;;;;;14.59;62.88;101920.31;4942854;28;45504;-61
2021/10/16 09:08:59;;;;;;;;;21.00;14.50;;;;;14.63;63.00;101916.56;4943993;28;45470;-70
2021/10/16 09:11:35;;;;;;;;;14.50;13.75;;;;;14.66;62.52;101913.72;4941097;28;46082;-61
2021/10/16 09:14:05;;;;;;;;;17.00;17.00;;;;;14.69;62.74;101918.84;4942289;28;45181;-61
2021/10/16 09:16:36;;;;;;;;;14.00;13.50;;;;;14.73;62.47;101921.25;4948727;28;45553;-62
2021/10/16 09:19:11;;;;;;;;;15.75;14.50;;;;;14.79;62.39;101912.09;4954020;28;45514;-60
2021/10/16 09:21:44;;;;;;;;;16.00;14.75;;;;;14.86;62.31;101912.59;4950377;28;45410;-60
2021/10/16 09:24:14;;;;;;;;;15.00;13.50;;;;;14.93;61.76;101916.56;4951029;28;45248;-61
2021/10/16 09:26:42;;;;;;;;;13.50;13.50;;;;;14.99;61.52;101924.16;4952033;28;45567;-60
2021/10/16 09:29:10;;;;;;;;;18.50;15.25;;;;;15.02;61.78;101910.75;4948150;28;45565;-58
2021/10/16 09:31:39;;;;;;;;;9.75;9.75;;;;;15.07;61.41;101912.16;4948811;28;46155;-60
2021/10/16 09:34:05;;;;;;;;;11.25;11.25;;;;;15.15;61.15;101908.19;4951587;28;45417;-60
2021/10/16 09:36:31;;;;;;;;;12.50;11.50;;;;;15.21;61.27;101908.69;4954213;28;45433;-60
2021/10/16 09:38:58;;;;;;;;;13.00;11.50;;;;;15.29;61.12;101911.72;4953370;28;45405;-60
2021/10/16 09:41:33;;;;;;;;;19.00;13.00;;;;;15.38;61.22;101906.81;4952106;28;45295;-60
2021/10/16 09:43:58;;;;;;;;;11.00;11.00;;;;;15.44;60.77;101909.09;4951434;28;45424;-61
2021/10/16 09:46:24;;;;;;;;;16.00;13.00;;;;;15.48;60.19;101910.59;4951691;28;45427;-63
2021/10/16 09:48:51;;;;;;;;;13.00;12.00;;;;;15.52;59.96;101910.34;4949548;28;45345;-61
2021/10/16 09:51:19;;;;;;;;;12.00;11.25;;;;;15.58;60.18;101915.28;4949755;28;45513;-61
2021/10/16 09:54:06;;;;;;;;;17.00;13.75;;;;;15.61;59.63;101914.25;4951580;28;45389;-61
2021/10/16 09:56:35;;;;;;;;;13.00;12.00;;;;;15.67;59.60;101913.03;4951098;28;45432;-63
2021/10/16 09:59:01;;;;;;;;;10.50;10.50;;;;;15.72;59.41;101911.81;4946135;28;45460;-63
2021/10/16 10:01:28;;;;;;;;;16.00;15.50;;;;;15.75;59.01;101906.28;4950987;28;45505;-62
2021/10/16 10:03:56;;;;;;;;;13.25;13.00;;;;;15.83;58.97;101905.81;4947344;28;45509;-62
2021/10/16 10:06:23;;;;;;;;;17.75;16.00;;;;;15.87;58.46;101905.50;4948570;28;45419;-63
2021/10/16 10:08:49;;;;;;;;;15.00;14.00;;;;;15.89;58.45;101900.13;4952253;28;45451;-63
2021/10/16 10:11:16;;;;;;;;;15.75;14.25;;;;;15.91;58.06;101903.53;4950265;28;45437;-63
2021/10/16 10:13:42;;;;;;;;;17.75;10.25;;;;;15.96;57.77;101900.56;4952096;28;45441;-63
2021/10/16 10:16:09;;;;;;;;;14.50;12.00;;;;;16.01;57.59;101903.78;4948274;28;45428;-63
2021/10/16 10:21:21;;;;;;;;;13.25;10.25;;;;;16.08;57.75;101899.81;4950151;28;45410;-63
2021/10/16 10:23:56;;;;;;;;;13.25;12.25;;;;;16.15;57.23;101901.13;4944187;28;45305;-63
2021/10/16 10:26:26;;;;;;;;;15.00;13.75;;;;;16.22;57.26;101896.25;4949437;28;45314;-63
2021/10/16 10:29:01;;;;;;;;;13.75;8.50;;;;;16.25;56.24;101896.06;4950696;28;45379;-63
2021/10/16 10:31:45;;;;;;;;;11.75;8.25;;;;;16.25;55.73;101891.59;4949862;28;45370;-63
2021/10/16 10:34:19;;;;;;;;;13.00;12.25;;;;;16.27;55.75;101899.47;4948314;28;45516;-62
2021/10/16 10:36:55;;;;;;;;;9.00;7.50;;;;;16.34;55.34;101904.28;4951955;28;45413;-63
2021/10/16 10:39:33;;;;;;;;;13.75;10.00;;;;;16.36;55.19;101902.41;4946008;28;45394;-63
2021/10/16 10:42:13;;;;;;;;;12.00;11.50;;;;;16.39;55.24;101907.50;4942410;28;45498;-63
2021/10/16 10:44:49;;;;;;;;;6.00;6.00;;;;;16.43;54.66;101902.81;4947315;28;45537;-64
2021/10/16 10:47:24;;;;;;;;;8.25;7.25;;;;;16.44;54.44;101908.06;4951551;28;45706;-63
2021/10/16 10:49:54;;;;;;;;;5.75;4.75;;;;;16.47;54.42;101907.00;4950114;28;45254;-62
2021/10/16 10:52:22;;;;;;;;;5.00;4.75;;;;;16.51;54.36;101907.66;4950856;28;45435;-62
2021/10/16 10:55:05;;;;;;;;;5.00;5.00;;;;;16.56;54.01;101905.56;4951070;28;45356;-63
2021/10/16 10:57:56;;;;;;;;;6.75;6.00;;;;;16.62;53.95;101899.84;4944551;28;45437;-63
2021/10/16 11:00:40;;;;;;;;;6.25;5.00;;;;;16.68;53.76;101896.78;4966409;28;46130;-63
2021/10/16 11:03:27;;;;;;;;;6.25;4.00;;;;;16.74;53.50;101893.72;4949852;28;45322;-63
2021/10/16 11:06:13;;;;;;;;;4.00;3.50;;;;;16.78;53.38;101889.91;4962601;28;45456;-60
2021/10/16 11:08:39;;;;;;;;;3.75;3.50;;;;;16.81;52.57;101887.03;4950916;28;45454;-65
2021/10/16 11:11:06;;;;;;;;;4.50;3.00;;;;;16.84;52.62;101886.84;4949341;28;45570;-61
2021/10/16 11:13:33;;;;;;;;;4.00;2.50;;;;;16.87;52.38;101886.63;4952230;28;45617;-61
2021/10/16 11:16:03;;;;;;;;;7.50;4.75;;;;;16.90;52.39;101886.41;4948412;28;45390;-63